createdAt,value
2022-08-24T00:02:06.373Z,2.47
2022-08-24T00:04:35.727Z,2.30
2022-08-24T00:07:12.994Z,2.00
2022-08-24T00:09:54.734Z,3.10
2022-08-24T00:12:23.578Z,5.60
2022-08-24T00:14:51.975Z,3.23
2022-08-24T00:17:20.935Z,2.47
2022-08-24T00:19:49.413Z,2.30
2022-08-24T00:22:19.113Z,2.60
2022-08-24T00:24:47.443Z,2.77
2022-08-24T00:27:15.741Z,2.50
2022-08-24T00:29:44.116Z,2.13
2022-08-24T00:32:12.610Z,2.40
2022-08-24T00:34:40.902Z,2.30
2022-08-24T00:37:16.203Z,2.50
2022-08-24T00:39:45.979Z,3.23
2022-08-24T00:42:14.380Z,2.67
2022-08-24T00:44:42.693Z,2.43
2022-08-24T00:47:18.625Z,2.27
2022-08-24T00:49:55.666Z,2.50
2022-08-24T00:52:31.699Z,2.27
2022-08-24T00:55:06.788Z,2.57
2022-08-24T00:57:42.038Z,3.87
2022-08-24T01:00:15.659Z,3.80
2022-08-24T01:02:49.478Z,2.43
2022-08-24T01:05:19.319Z,2.50
2022-08-24T01:07:50.754Z,3.13
2022-08-24T01:10:25.917Z,2.80
2022-08-24T01:13:01.455Z,2.87
2022-08-24T01:15:34.718Z,2.83
2022-08-24T01:18:21.604Z,2.70
2022-08-24T01:21:05.103Z,3.30
2022-08-24T01:23:41.301Z,2.70
2022-08-24T01:26:14.173Z,3.63
2022-08-24T01:28:47.564Z,2.47
2022-08-24T01:31:20.774Z,2.77
2022-08-24T01:33:50.838Z,3.70
2022-08-24T01:36:31.357Z,2.70
2022-08-24T01:39:05.738Z,2.60
2022-08-24T01:41:34.099Z,2.67
2022-08-24T01:44:02.373Z,3.27
2022-08-24T01:46:30.769Z,6.00
2022-08-24T01:49:00.069Z,3.60
2022-08-24T01:51:32.610Z,3.23
2022-08-24T01:54:03.495Z,2.90
2022-08-24T01:56:33.961Z,2.50
2022-08-24T01:59:02.737Z,2.70
2022-08-24T02:01:34.472Z,2.67
2022-08-24T02:04:06.444Z,6.97
2022-08-24T02:06:38.516Z,2.97
2022-08-24T02:09:08.620Z,2.50
2022-08-24T02:11:39.006Z,2.67
2022-08-24T02:14:07.668Z,2.93
2022-08-24T02:16:36.853Z,2.87
2022-08-24T02:19:05.226Z,3.53
2022-08-24T02:21:33.991Z,3.10
2022-08-24T02:24:02.391Z,2.50
2022-08-24T02:26:32.153Z,2.50
2022-08-24T02:29:03.656Z,2.70
2022-08-24T02:31:32.410Z,2.90
2022-08-24T02:34:00.847Z,2.50
2022-08-24T02:36:29.173Z,4.67
2022-08-24T02:38:57.926Z,3.10
2022-08-24T02:41:27.013Z,3.87
2022-08-24T02:43:57.801Z,2.67
2022-08-24T02:46:30.080Z,3.30
2022-08-24T02:49:11.041Z,3.30
2022-08-24T02:51:44.638Z,3.37
2022-08-24T02:54:17.611Z,3.33
2022-08-24T02:56:46.424Z,2.87
2022-08-24T02:59:16.805Z,4.33
2022-08-24T03:01:46.249Z,3.53
2022-08-24T03:04:14.853Z,3.47
2022-08-24T03:06:44.640Z,3.50
2022-08-24T03:09:13.865Z,4.40
2022-08-24T03:11:42.699Z,3.73
2022-08-24T03:14:15.581Z,3.87
2022-08-24T03:16:44.021Z,6.27
2022-08-24T03:19:12.440Z,10.30
2022-08-24T03:21:41.727Z,8.43
2022-08-24T03:24:10.385Z,7.40
2022-08-24T03:26:39.187Z,8.73
2022-08-24T03:29:12.614Z,8.37
2022-08-24T03:31:42.406Z,7.07
2022-08-24T03:34:13.717Z,8.43
2022-08-24T03:36:45.957Z,8.00
2022-08-24T03:39:14.869Z,7.70
2022-08-24T03:41:43.205Z,6.60
2022-08-24T03:44:11.555Z,7.70
2022-08-24T03:46:42.271Z,11.70
2022-08-24T03:49:11.727Z,7.83
2022-08-24T03:51:40.472Z,8.00
2022-08-24T03:54:10.997Z,8.30
2022-08-24T03:56:39.845Z,6.93
2022-08-24T03:59:10.621Z,8.07
2022-08-24T04:01:40.196Z,7.97
2022-08-24T04:04:10.065Z,8.03
2022-08-24T04:06:40.442Z,7.47
2022-08-24T04:09:08.785Z,6.73
2022-08-24T04:11:40.951Z,7.27
2022-08-24T04:14:12.103Z,5.50
2022-08-24T04:16:57.297Z,6.23
2022-08-24T04:19:28.575Z,6.70
2022-08-24T04:21:57.444Z,6.50
2022-08-24T04:24:26.905Z,6.60
2022-08-24T04:26:55.328Z,7.10
2022-08-24T04:29:23.706Z,7.70
2022-08-24T04:31:52.246Z,8.73
2022-08-24T04:34:20.645Z,7.60
2022-08-24T04:36:50.373Z,12.87
2022-08-24T04:39:18.668Z,9.43
2022-08-24T04:41:46.990Z,9.57
2022-08-24T04:44:19.016Z,6.27
2022-08-24T04:46:47.402Z,4.50
2022-08-24T04:49:15.775Z,5.20
2022-08-24T04:51:44.143Z,5.07
2022-08-24T04:54:13.930Z,4.90
2022-08-24T04:56:42.247Z,4.30
2022-08-24T04:59:10.594Z,5.47
2022-08-24T05:01:39.020Z,5.40
2022-08-24T05:04:07.416Z,4.33
2022-08-24T05:06:36.053Z,4.10
2022-08-24T05:09:07.282Z,4.40
2022-08-24T05:11:40.780Z,3.87
2022-08-24T05:14:11.258Z,3.97
2022-08-24T05:16:45.728Z,3.90
2022-08-24T05:19:22.186Z,3.90
2022-08-24T05:21:50.568Z,3.63
2022-08-24T05:24:19.690Z,3.87
2022-08-24T05:26:49.861Z,3.90
2022-08-24T05:29:19.060Z,5.03
2022-08-24T05:31:47.987Z,5.07
2022-08-24T05:34:16.573Z,5.00
2022-08-24T05:36:45.382Z,5.40
2022-08-24T05:39:15.609Z,5.43
2022-08-24T05:41:48.097Z,5.87
2022-08-24T05:44:18.960Z,5.93
2022-08-24T05:46:47.487Z,5.67
2022-08-24T05:49:15.856Z,5.70
2022-08-24T05:51:44.131Z,5.67
2022-08-24T05:54:14.682Z,5.60
2022-08-24T05:56:44.862Z,5.67
2022-08-24T05:59:17.499Z,5.80
2022-08-24T06:01:45.903Z,5.63
2022-08-24T06:04:14.585Z,5.90
2022-08-24T06:06:44.452Z,6.00
2022-08-24T06:09:17.604Z,6.23
2022-08-24T06:11:47.599Z,5.60
2022-08-24T06:14:20.996Z,5.70
2022-08-24T06:16:52.646Z,5.97
2022-08-24T06:19:21.942Z,5.97
2022-08-24T06:21:53.312Z,6.67
2022-08-24T06:24:44.389Z,6.07
2022-08-24T06:27:25.566Z,7.37
2022-08-24T06:29:59.199Z,6.83
2022-08-24T06:32:27.724Z,6.90
2022-08-24T06:34:58.791Z,6.30
2022-08-24T06:37:29.302Z,6.40
2022-08-24T06:39:59.353Z,7.00
2022-08-24T06:42:29.368Z,6.83
2022-08-24T06:44:59.651Z,6.30
2022-08-24T06:47:28.036Z,6.27
2022-08-24T06:49:59.562Z,6.47
2022-08-24T06:52:27.999Z,7.17
2022-08-24T06:54:56.522Z,6.90
2022-08-24T06:57:25.278Z,6.57
2022-08-24T06:59:54.445Z,6.33
2022-08-24T07:02:24.318Z,6.23
2022-08-24T07:04:52.724Z,8.43
2022-08-24T07:07:21.056Z,8.37
2022-08-24T07:09:49.417Z,5.87
2022-08-24T07:12:17.830Z,6.30
2022-08-24T07:14:46.099Z,6.20
2022-08-24T07:17:14.461Z,6.00
2022-08-24T07:19:44.223Z,6.30
2022-08-24T07:22:13.887Z,5.73
2022-08-24T07:24:43.191Z,6.17
2022-08-24T07:27:11.834Z,5.60
2022-08-24T07:29:59.995Z,5.30
2022-08-24T07:32:29.626Z,5.33
2022-08-24T07:34:59.298Z,4.53
2022-08-24T07:37:40.717Z,3.83
2022-08-24T07:40:10.546Z,6.37
2022-08-24T07:42:39.917Z,2.57
2022-08-24T07:45:09.751Z,2.53
2022-08-24T07:47:41.831Z,2.40
2022-08-24T07:50:15.798Z,2.50
2022-08-24T07:52:45.399Z,2.63
2022-08-24T07:55:15.816Z,2.97
2022-08-24T07:57:46.151Z,2.67
2022-08-24T08:00:19.651Z,2.50
2022-08-24T08:02:48.384Z,2.33
2022-08-24T08:05:20.686Z,2.80
2022-08-24T08:07:52.060Z,3.03
2022-08-24T08:10:21.860Z,2.40
2022-08-24T08:12:50.268Z,2.20
2022-08-24T08:15:19.638Z,2.10
2022-08-24T08:17:48.059Z,2.20
2022-08-24T08:20:25.687Z,2.60
2022-08-24T08:23:11.750Z,2.53
2022-08-24T08:25:42.415Z,2.20
2022-08-24T08:28:25.260Z,2.33
2022-08-24T08:30:55.175Z,2.40
2022-08-24T08:36:07.186Z,2.37
2022-08-24T08:38:37.177Z,2.37
2022-08-24T08:41:36.294Z,2.28
2022-08-24T08:44:15.950Z,2.50
2022-08-24T08:46:58.138Z,2.70
2022-08-24T08:50:08.402Z,2.15
2022-08-24T08:53:10.969Z,2.20
2022-08-24T08:55:43.954Z,2.38
2022-08-24T08:58:39.247Z,3.25
2022-08-24T09:01:20.196Z,2.30
2022-08-24T09:04:22.843Z,2.05
2022-08-24T09:07:12.865Z,1.92
2022-08-24T09:10:10.172Z,2.13
2022-08-24T09:12:54.641Z,1.80
2022-08-24T09:15:44.846Z,2.72
2022-08-24T09:18:31.106Z,1.83
2022-08-24T09:21:39.066Z,1.67
2022-08-24T09:24:26.882Z,1.85
2022-08-24T09:27:10.022Z,1.80
2022-08-24T09:29:56.694Z,1.85
2022-08-24T09:32:39.889Z,1.88
2022-08-24T09:35:26.866Z,2.10
2022-08-24T09:38:02.922Z,2.22
2022-08-24T09:40:44.922Z,2.17
2022-08-24T09:44:07.325Z,2.05
2022-08-24T09:47:23.559Z,2.92
2022-08-24T09:50:29.081Z,1.75
2022-08-24T09:53:33.923Z,1.92
2022-08-24T09:56:38.367Z,1.92
2022-08-24T09:59:43.633Z,3.40
2022-08-24T10:02:35.281Z,3.45
2022-08-24T10:05:14.689Z,2.67
2022-08-24T10:07:56.358Z,2.28
2022-08-24T10:10:36.618Z,2.30
2022-08-24T10:13:21.473Z,4.30
2022-08-24T10:16:17.351Z,2.55
2022-08-24T10:19:01.234Z,3.03
2022-08-24T10:21:49.163Z,2.38
2022-08-24T10:24:39.703Z,2.00
2022-08-24T10:27:32.666Z,2.60
2022-08-24T10:30:56.067Z,4.00
2022-08-24T10:33:28.595Z,2.43
2022-08-24T10:36:32.057Z,2.40
2022-08-24T10:39:43.504Z,2.20
2022-08-24T10:43:03.447Z,2.10
2022-08-24T10:46:03.318Z,2.00
2022-08-24T10:49:14.997Z,6.63
2022-08-24T10:52:05.029Z,2.10
2022-08-24T10:54:37.247Z,1.90
2022-08-24T10:57:12.454Z,2.40
2022-08-24T10:59:56.018Z,2.53
2022-08-24T11:02:35.208Z,2.60
2022-08-24T11:05:09.373Z,4.75
2022-08-24T11:07:53.060Z,1.92
2022-08-24T11:10:28.142Z,2.00
2022-08-24T11:12:56.999Z,2.28
2022-08-24T11:15:29.650Z,2.03
2022-08-24T11:18:03.289Z,2.40
2022-08-24T11:20:35.812Z,1.90
2022-08-24T11:23:08.003Z,2.13
2022-08-24T11:25:40.413Z,2.03
2022-08-24T11:28:32.553Z,2.22
2022-08-24T11:31:03.489Z,2.17
2022-08-24T11:33:36.027Z,2.28
2022-08-24T11:36:21.206Z,2.10
2022-08-24T11:39:13.206Z,2.03
2022-08-24T11:41:54.961Z,2.78
2022-08-24T11:44:41.202Z,2.20
2022-08-24T11:47:46.285Z,2.53
2022-08-24T11:50:35.669Z,2.20
2022-08-24T11:53:24.822Z,1.95
2022-08-24T11:56:07.904Z,2.10
2022-08-24T11:58:53.816Z,2.42
2022-08-24T12:01:29.275Z,1.90
2022-08-24T12:04:19.081Z,4.15
2022-08-24T12:06:58.397Z,2.60
2022-08-24T12:09:48.364Z,1.90
2022-08-24T12:12:23.865Z,2.10
2022-08-24T12:15:02.218Z,2.00
2022-08-24T12:17:39.854Z,2.08
2022-08-24T12:20:25.343Z,2.53
2022-08-24T12:22:57.182Z,2.05
2022-08-24T12:25:45.305Z,2.17
2022-08-24T12:28:21.340Z,3.60
2022-08-24T12:30:50.329Z,2.15
2022-08-24T12:33:22.366Z,2.10
2022-08-24T12:35:57.517Z,2.25
2022-08-24T12:38:30.742Z,2.15
2022-08-24T12:41:14.699Z,2.13
2022-08-24T12:43:53.798Z,1.98
2022-08-24T12:46:25.516Z,2.75
2022-08-24T12:48:59.692Z,3.53
2022-08-24T12:51:47.667Z,2.33
2022-08-24T12:54:37.297Z,2.10
2022-08-24T12:57:35.282Z,2.38
2022-08-24T13:00:11.109Z,2.65
2022-08-24T13:02:48.414Z,3.22
2022-08-24T13:05:21.165Z,2.88
2022-08-24T13:07:52.543Z,2.22
2022-08-24T13:10:42.305Z,2.40
2022-08-24T13:13:18.430Z,2.40
2022-08-24T13:16:03.353Z,2.40
2022-08-24T13:19:09.719Z,2.20
2022-08-24T13:21:54.285Z,4.03
2022-08-24T13:24:59.634Z,2.58
2022-08-24T13:28:06.881Z,2.15
2022-08-24T13:31:04.237Z,2.08
2022-08-24T13:33:38.454Z,2.38
2022-08-24T13:36:47.940Z,2.30
2022-08-24T13:39:51.173Z,2.25
2022-08-24T13:42:41.537Z,2.97
2022-08-24T13:45:33.905Z,2.50
2022-08-24T13:48:30.465Z,2.20
2022-08-24T13:51:21.605Z,2.40
2022-08-24T13:54:08.572Z,1.95
2022-08-24T13:57:10.170Z,2.17
2022-08-24T14:00:05.657Z,1.83
2022-08-24T14:02:57.390Z,2.22
2022-08-24T14:05:37.073Z,2.10
2022-08-24T14:08:26.604Z,2.30
2022-08-24T14:11:09.612Z,2.63
2022-08-24T14:13:56.779Z,2.13
2022-08-24T14:17:02.544Z,2.30
2022-08-24T14:19:44.138Z,2.40
2022-08-24T14:22:31.519Z,1.90
2022-08-24T14:25:18.289Z,2.42
2022-08-24T14:27:49.435Z,2.92
2022-08-24T14:30:47.631Z,2.67
2022-08-24T14:33:32.824Z,2.00
2022-08-24T14:36:20.094Z,2.03
2022-08-24T14:39:00.493Z,2.00
2022-08-24T14:41:52.070Z,1.98
2022-08-24T14:44:51.972Z,3.28
2022-08-24T14:47:38.923Z,2.30
2022-08-24T14:50:15.378Z,2.85
2022-08-24T14:52:54.908Z,2.50
2022-08-24T14:55:32.996Z,2.83
2022-08-24T14:58:29.153Z,3.17
2022-08-24T15:01:32.783Z,2.53
2022-08-24T15:04:16.224Z,2.95
2022-08-24T15:07:23.881Z,2.70
2022-08-24T15:09:53.992Z,2.30
2022-08-24T15:12:44.183Z,2.22
2022-08-24T15:15:19.035Z,2.88
2022-08-24T15:18:00.355Z,2.17
2022-08-24T15:20:48.171Z,2.25
2022-08-24T15:23:24.662Z,3.72
2022-08-24T15:26:00.437Z,2.78
2022-08-24T15:28:35.900Z,2.63
2022-08-24T15:31:10.116Z,3.95
2022-08-24T15:33:55.951Z,5.93
2022-08-24T15:36:24.542Z,3.65
2022-08-24T15:38:53.266Z,3.58
2022-08-24T15:41:25.981Z,2.92
2022-08-24T15:44:00.835Z,2.50
2022-08-24T15:46:34.905Z,3.95
2022-08-24T15:49:08.025Z,2.47
2022-08-24T15:51:53.281Z,3.13
2022-08-24T15:54:35.822Z,3.00
2022-08-24T15:57:11.116Z,2.58
2022-08-24T15:59:51.761Z,3.58
2022-08-24T16:02:26.903Z,2.85
2022-08-24T16:05:10.863Z,2.88
2022-08-24T16:08:10.967Z,2.38
2022-08-24T16:10:43.642Z,4.80
2022-08-24T16:13:23.516Z,6.07
2022-08-24T16:16:02.278Z,3.35
2022-08-24T16:18:49.915Z,3.38
2022-08-24T16:21:22.750Z,2.83
2022-08-24T16:24:02.028Z,2.92
2022-08-24T16:26:33.928Z,3.40
2022-08-24T16:29:05.873Z,4.50
2022-08-24T16:31:52.878Z,2.80
2022-08-24T16:34:32.579Z,3.70
2022-08-24T16:37:01.019Z,3.10
2022-08-24T16:39:29.355Z,3.35
2022-08-24T16:42:03.583Z,2.95
2022-08-24T16:44:37.029Z,3.00
2022-08-24T16:47:08.570Z,3.15
2022-08-24T16:49:39.203Z,3.20
2022-08-24T16:52:08.923Z,3.43
2022-08-24T16:54:37.319Z,4.57
2022-08-24T16:57:13.434Z,4.83
2022-08-24T16:59:45.387Z,3.17
2022-08-24T17:02:17.287Z,3.10
2022-08-24T17:04:46.479Z,3.28
2022-08-24T17:07:18.439Z,3.13
2022-08-24T17:09:48.491Z,3.17
2022-08-24T17:12:17.018Z,2.90
2022-08-24T17:14:45.397Z,3.23
2022-08-24T17:17:21.340Z,3.93
2022-08-24T17:19:53.094Z,3.23
2022-08-24T17:22:22.597Z,3.20
2022-08-24T17:24:52.009Z,3.20
2022-08-24T17:27:22.881Z,2.75
2022-08-24T17:29:51.485Z,3.10
2022-08-24T17:32:21.168Z,3.83
2022-08-24T17:34:49.555Z,3.80
2022-08-24T17:37:18.679Z,3.60
2022-08-24T17:39:58.472Z,3.10
2022-08-24T17:42:50.187Z,3.80
2022-08-24T17:45:16.473Z,3.70
2022-08-24T17:47:46.468Z,3.30
2022-08-24T17:50:19.309Z,3.23
2022-08-24T17:52:48.444Z,6.77
2022-08-24T17:55:25.292Z,3.20
2022-08-24T17:57:53.960Z,3.60
2022-08-24T18:00:22.645Z,3.33
2022-08-24T18:02:52.356Z,3.03
2022-08-24T18:05:21.846Z,3.63
2022-08-24T18:07:54.746Z,2.87
2022-08-24T18:10:26.155Z,3.67
2022-08-24T18:12:54.867Z,3.83
2022-08-24T18:15:33.634Z,4.00
2022-08-24T18:18:09.435Z,3.30
2022-08-24T18:20:41.674Z,5.17
2022-08-24T18:23:11.927Z,4.07
2022-08-24T18:25:47.864Z,3.30
2022-08-24T18:28:17.830Z,3.67
2022-08-24T18:30:46.557Z,3.57
2022-08-24T18:33:17.523Z,3.07
2022-08-24T18:35:47.648Z,3.23
2022-08-24T18:38:16.053Z,3.93
2022-08-24T18:40:52.113Z,3.47
2022-08-24T18:43:23.250Z,3.37
2022-08-24T18:45:52.189Z,3.43
2022-08-24T18:48:22.006Z,5.03
2022-08-24T18:50:50.858Z,3.90
2022-08-24T18:53:19.667Z,3.73
2022-08-24T18:55:49.428Z,3.77
2022-08-24T18:58:17.954Z,3.80
2022-08-24T19:00:47.138Z,3.67
2022-08-24T19:03:21.169Z,5.40
2022-08-24T19:05:49.763Z,4.10
2022-08-24T19:08:18.172Z,3.57
2022-08-24T19:10:46.887Z,3.93
2022-08-24T19:13:18.354Z,3.63
2022-08-24T19:15:48.137Z,3.77
2022-08-24T19:18:19.276Z,4.03
2022-08-24T19:20:51.699Z,4.60
2022-08-24T19:23:23.745Z,4.30
2022-08-24T19:25:54.580Z,4.33
2022-08-24T19:28:25.581Z,4.03
2022-08-24T19:30:56.999Z,4.27
2022-08-24T19:33:29.706Z,4.23
2022-08-24T19:36:00.541Z,6.03
2022-08-24T19:38:29.325Z,4.83
2022-08-24T19:40:59.564Z,4.37
2022-08-24T19:43:29.453Z,4.37
2022-08-24T19:46:05.601Z,4.33
2022-08-24T19:48:36.389Z,3.83
2022-08-24T19:51:09.753Z,4.30
2022-08-24T19:53:39.307Z,3.90
2022-08-24T19:56:08.906Z,4.30
2022-08-24T19:58:47.278Z,4.13
2022-08-24T20:01:22.111Z,4.53
2022-08-24T20:03:50.986Z,4.20
2022-08-24T20:06:23.862Z,4.80
2022-08-24T20:08:53.405Z,4.27
2022-08-24T20:11:25.327Z,4.10
2022-08-24T20:13:54.399Z,4.77
2022-08-24T20:16:24.851Z,4.13
2022-08-24T20:18:53.449Z,4.80
2022-08-24T20:21:27.200Z,5.03
2022-08-24T20:24:00.451Z,4.03
2022-08-24T20:26:32.817Z,6.67
2022-08-24T20:29:01.222Z,4.87
2022-08-24T20:31:29.928Z,4.80
2022-08-24T20:33:58.770Z,5.37
2022-08-24T20:36:33.960Z,5.03
2022-08-24T20:39:03.871Z,5.50
2022-08-24T20:41:33.182Z,5.10
2022-08-24T20:44:01.665Z,4.17
2022-08-24T20:46:31.249Z,4.50
2022-08-24T20:49:01.073Z,4.73
2022-08-24T20:51:31.106Z,4.73
2022-08-24T20:54:01.870Z,6.33
2022-08-24T20:56:32.690Z,5.10
2022-08-24T20:59:03.426Z,5.07
2022-08-24T21:01:32.153Z,4.40
2022-08-24T21:04:05.118Z,5.17
2022-08-24T21:06:35.698Z,5.33
2022-08-24T21:09:05.791Z,5.70
2022-08-24T21:11:34.537Z,5.80
2022-08-24T21:14:06.038Z,5.63
2022-08-24T21:16:35.715Z,5.03
2022-08-24T21:19:04.172Z,4.87
2022-08-24T21:21:34.826Z,4.67
2022-08-24T21:24:04.738Z,5.27
2022-08-24T21:26:34.674Z,5.17
2022-08-24T21:29:05.791Z,4.77
2022-08-24T21:31:35.117Z,5.63
2022-08-24T21:34:20.882Z,4.97
2022-08-24T21:36:52.669Z,4.97
2022-08-24T21:39:22.546Z,5.70
2022-08-24T21:41:51.128Z,5.33
2022-08-24T21:44:19.453Z,4.77
2022-08-24T21:46:49.630Z,4.43
2022-08-24T21:49:18.054Z,4.50
2022-08-24T21:51:46.432Z,5.27
2022-08-24T21:54:16.169Z,5.10
2022-08-24T21:56:44.519Z,5.80
2022-08-24T21:59:13.156Z,5.27
2022-08-24T22:01:42.007Z,4.87
2022-08-24T22:04:11.329Z,5.67
2022-08-24T22:06:40.215Z,5.60
2022-08-24T22:09:09.023Z,7.27
2022-08-24T22:11:38.760Z,5.87
2022-08-24T22:14:07.345Z,6.37
2022-08-24T22:16:37.060Z,5.77
2022-08-24T22:19:06.196Z,4.90
2022-08-24T22:21:36.163Z,7.70
2022-08-24T22:24:05.477Z,5.87
2022-08-24T22:26:35.222Z,7.07
2022-08-24T22:29:06.843Z,5.83
2022-08-24T22:31:39.555Z,5.23
2022-08-24T22:34:11.953Z,5.63
2022-08-24T22:36:45.466Z,5.37
2022-08-24T22:39:14.674Z,5.43
2022-08-24T22:41:43.919Z,6.30
2022-08-24T22:44:22.400Z,5.47
2022-08-24T22:46:53.030Z,6.10
2022-08-24T22:49:23.516Z,5.20
2022-08-24T22:51:52.061Z,5.77
2022-08-24T22:54:21.482Z,5.90
2022-08-24T22:56:52.591Z,6.17
2022-08-24T22:59:25.455Z,5.40
2022-08-24T23:01:56.190Z,5.67
2022-08-24T23:04:29.239Z,5.70
2022-08-24T23:31:53.642Z,6.27
2022-08-24T23:34:23.161Z,5.67
2022-08-24T23:40:57.153Z,5.30
2022-08-24T23:43:25.474Z,5.43
2022-08-24T23:45:55.270Z,5.93
2022-08-24T23:48:25.011Z,5.90
2022-08-24T23:50:53.538Z,6.20
2022-08-24T23:53:22.021Z,5.70
2022-08-24T23:55:50.409Z,7.87
2022-08-24T23:58:19.901Z,6.57
